sensor_id;sensor_type;location;lat;lon;timestamp;P1;durP1;ratioP1;P2;durP2;ratioP2
40913;SDS011;26638;50.990;4.676;2024-01-30T00:01:39;16.20;;;8.70;;
40913;SDS011;26638;50.990;4.676;2024-01-30T00:04:04;14.15;;;8.80;;
40913;SDS011;26638;50.990;4.676;2024-01-30T00:06:30;16.33;;;9.37;;
40913;SDS011;26638;50.990;4.676;2024-01-30T00:08:56;12.35;;;9.07;;
40913;SDS011;26638;50.990;4.676;2024-01-30T00:11:22;15.93;;;9.18;;
40913;SDS011;26638;50.990;4.676;2024-01-30T00:13:50;15.05;;;8.00;;
40913;SDS011;26638;50.990;4.676;2024-01-30T00:16:23;13.90;;;8.73;;
40913;SDS011;26638;50.990;4.676;2024-01-30T00:18:50;14.63;;;8.50;;
40913;SDS011;26638;50.990;4.676;2024-01-30T00:21:19;13.77;;;8.82;;
40913;SDS011;26638;50.990;4.676;2024-01-30T00:23:46;16.00;;;9.23;;
40913;SDS011;26638;50.990;4.676;2024-01-30T00:26:12;12.10;;;8.52;;
40913;SDS011;26638;50.990;4.676;2024-01-30T00:28:39;12.47;;;7.93;;
40913;SDS011;26638;50.990;4.676;2024-01-30T00:31:05;14.77;;;9.07;;
40913;SDS011;26638;50.990;4.676;2024-01-30T00:33:31;14.40;;;8.93;;
40913;SDS011;26638;50.990;4.676;2024-01-30T00:35:57;13.68;;;8.88;;
40913;SDS011;26638;50.990;4.676;2024-01-30T00:38:23;15.77;;;8.98;;
40913;SDS011;26638;50.990;4.676;2024-01-30T00:40:49;16.90;;;9.60;;
40913;SDS011;26638;50.990;4.676;2024-01-30T00:43:15;15.03;;;9.33;;
40913;SDS011;26638;50.990;4.676;2024-01-30T00:45:43;14.65;;;9.48;;
40913;SDS011;26638;50.990;4.676;2024-01-30T00:48:09;14.70;;;8.73;;
40913;SDS011;26638;50.990;4.676;2024-01-30T00:50:35;13.68;;;9.02;;
40913;SDS011;26638;50.990;4.676;2024-01-30T00:53:00;12.23;;;8.30;;
40913;SDS011;26638;50.990;4.676;2024-01-30T00:55:26;13.83;;;9.50;;
40913;SDS011;26638;50.990;4.676;2024-01-30T00:57:52;13.02;;;8.68;;
40913;SDS011;26638;50.990;4.676;2024-01-30T01:00:18;14.77;;;9.02;;
40913;SDS011;26638;50.990;4.676;2024-01-30T01:02:45;14.85;;;9.68;;
40913;SDS011;26638;50.990;4.676;2024-01-30T01:05:11;15.23;;;8.80;;
40913;SDS011;26638;50.990;4.676;2024-01-30T01:07:37;11.25;;;8.60;;
40913;SDS011;26638;50.990;4.676;2024-01-30T01:10:03;16.45;;;9.65;;
40913;SDS011;26638;50.990;4.676;2024-01-30T01:12:29;19.33;;;9.82;;
40913;SDS011;26638;50.990;4.676;2024-01-30T01:14:58;16.25;;;9.98;;
40913;SDS011;26638;50.990;4.676;2024-01-30T01:17:23;16.13;;;9.35;;
40913;SDS011;26638;50.990;4.676;2024-01-30T01:19:49;14.85;;;8.98;;
40913;SDS011;26638;50.990;4.676;2024-01-30T01:22:15;19.33;;;9.43;;
40913;SDS011;26638;50.990;4.676;2024-01-30T01:24:42;16.98;;;9.40;;
40913;SDS011;26638;50.990;4.676;2024-01-30T01:27:08;15.37;;;10.00;;
40913;SDS011;26638;50.990;4.676;2024-01-30T01:29:33;17.70;;;10.52;;
40913;SDS011;26638;50.990;4.676;2024-01-30T01:31:59;18.52;;;10.75;;
40913;SDS011;26638;50.990;4.676;2024-01-30T01:34:27;20.27;;;11.40;;
40913;SDS011;26638;50.990;4.676;2024-01-30T01:36:53;15.70;;;10.82;;
40913;SDS011;26638;50.990;4.676;2024-01-30T01:39:22;16.52;;;11.55;;
40913;SDS011;26638;50.990;4.676;2024-01-30T01:41:51;19.35;;;11.30;;
40913;SDS011;26638;50.990;4.676;2024-01-30T01:44:17;16.42;;;10.65;;
40913;SDS011;26638;50.990;4.676;2024-01-30T01:46:43;19.95;;;11.10;;
40913;SDS011;26638;50.990;4.676;2024-01-30T01:49:09;17.15;;;10.65;;
40913;SDS011;26638;50.990;4.676;2024-01-30T01:51:36;18.20;;;10.63;;
40913;SDS011;26638;50.990;4.676;2024-01-30T01:54:03;17.57;;;11.10;;
40913;SDS011;26638;50.990;4.676;2024-01-30T01:56:30;15.70;;;10.45;;
40913;SDS011;26638;50.990;4.676;2024-01-30T01:58:59;17.75;;;10.77;;
40913;SDS011;26638;50.990;4.676;2024-01-30T02:01:29;17.40;;;10.32;;
40913;SDS011;26638;50.990;4.676;2024-01-30T02:03:58;17.52;;;11.35;;
40913;SDS011;26638;50.990;4.676;2024-01-30T02:06:24;17.73;;;10.53;;
40913;SDS011;26638;50.990;4.676;2024-01-30T02:08:53;16.05;;;10.52;;
40913;SDS011;26638;50.990;4.676;2024-01-30T02:11:19;20.73;;;12.75;;
40913;SDS011;26638;50.990;4.676;2024-01-30T02:13:45;19.77;;;10.65;;
40913;SDS011;26638;50.990;4.676;2024-01-30T02:16:11;19.80;;;10.70;;
40913;SDS011;26638;50.990;4.676;2024-01-30T02:18:37;18.60;;;10.60;;
40913;SDS011;26638;50.990;4.676;2024-01-30T02:21:07;17.58;;;10.40;;
40913;SDS011;26638;50.990;4.676;2024-01-30T02:23:33;13.53;;;9.83;;
40913;SDS011;26638;50.990;4.676;2024-01-30T02:25:59;13.07;;;9.65;;
40913;SDS011;26638;50.990;4.676;2024-01-30T02:28:26;16.08;;;10.50;;
40913;SDS011;26638;50.990;4.676;2024-01-30T02:30:52;18.10;;;10.55;;
40913;SDS011;26638;50.990;4.676;2024-01-30T02:33:18;14.82;;;9.93;;
40913;SDS011;26638;50.990;4.676;2024-01-30T02:35:44;15.85;;;9.77;;
40913;SDS011;26638;50.990;4.676;2024-01-30T02:38:10;14.30;;;9.13;;
40913;SDS011;26638;50.990;4.676;2024-01-30T02:40:36;16.77;;;10.27;;
40913;SDS011;26638;50.990;4.676;2024-01-30T02:43:02;15.20;;;10.57;;
40913;SDS011;26638;50.990;4.676;2024-01-30T02:45:28;18.88;;;11.57;;
40913;SDS011;26638;50.990;4.676;2024-01-30T02:47:54;19.67;;;12.30;;
40913;SDS011;26638;50.990;4.676;2024-01-30T02:50:19;15.93;;;9.67;;
40913;SDS011;26638;50.990;4.676;2024-01-30T02:52:45;15.55;;;9.82;;
40913;SDS011;26638;50.990;4.676;2024-01-30T02:55:11;12.25;;;8.70;;
40913;SDS011;26638;50.990;4.676;2024-01-30T02:57:37;13.85;;;8.85;;
40913;SDS011;26638;50.990;4.676;2024-01-30T03:00:03;11.82;;;7.78;;
40913;SDS011;26638;50.990;4.676;2024-01-30T03:02:33;13.67;;;7.47;;
40913;SDS011;26638;50.990;4.676;2024-01-30T03:04:59;12.60;;;7.53;;
40913;SDS011;26638;50.990;4.676;2024-01-30T03:07:25;10.40;;;7.15;;
40913;SDS011;26638;50.990;4.676;2024-01-30T03:09:51;12.45;;;7.53;;
40913;SDS011;26638;50.990;4.676;2024-01-30T03:12:17;12.27;;;6.82;;
40913;SDS011;26638;50.990;4.676;2024-01-30T03:14:43;14.10;;;7.63;;
40913;SDS011;26638;50.990;4.676;2024-01-30T03:17:08;11.17;;;6.87;;
40913;SDS011;26638;50.990;4.676;2024-01-30T03:19:34;14.95;;;7.25;;
40913;SDS011;26638;50.990;4.676;2024-01-30T03:22:00;12.53;;;7.13;;
40913;SDS011;26638;50.990;4.676;2024-01-30T03:24:26;11.37;;;6.57;;
40913;SDS011;26638;50.990;4.676;2024-01-30T03:26:51;11.80;;;6.90;;
40913;SDS011;26638;50.990;4.676;2024-01-30T03:29:18;12.02;;;6.60;;
40913;SDS011;26638;50.990;4.676;2024-01-30T03:31:43;11.90;;;7.05;;
40913;SDS011;26638;50.990;4.676;2024-01-30T03:34:09;13.20;;;6.97;;
40913;SDS011;26638;50.990;4.676;2024-01-30T03:36:35;10.53;;;7.03;;
40913;SDS011;26638;50.990;4.676;2024-01-30T03:39:01;12.38;;;6.95;;
40913;SDS011;26638;50.990;4.676;2024-01-30T03:41:27;9.43;;;6.75;;
40913;SDS011;26638;50.990;4.676;2024-01-30T03:43:52;10.98;;;6.75;;
40913;SDS011;26638;50.990;4.676;2024-01-30T03:46:18;12.13;;;7.03;;
40913;SDS011;26638;50.990;4.676;2024-01-30T03:48:44;10.07;;;6.50;;
40913;SDS011;26638;50.990;4.676;2024-01-30T03:51:11;11.43;;;6.55;;
40913;SDS011;26638;50.990;4.676;2024-01-30T03:53:43;10.27;;;6.83;;
40913;SDS011;26638;50.990;4.676;2024-01-30T03:56:09;10.40;;;7.18;;
40913;SDS011;26638;50.990;4.676;2024-01-30T03:58:35;12.15;;;7.20;;
40913;SDS011;26638;50.990;4.676;2024-01-30T04:01:00;11.23;;;6.93;;
40913;SDS011;26638;50.990;4.676;2024-01-30T04:03:26;15.25;;;7.07;;
40913;SDS011;26638;50.990;4.676;2024-01-30T04:05:52;10.27;;;6.55;;
40913;SDS011;26638;50.990;4.676;2024-01-30T04:08:18;10.02;;;6.63;;
40913;SDS011;26638;50.990;4.676;2024-01-30T04:10:44;9.45;;;6.43;;
40913;SDS011;26638;50.990;4.676;2024-01-30T04:13:10;11.00;;;6.40;;
40913;SDS011;26638;50.990;4.676;2024-01-30T04:15:36;10.50;;;6.70;;
40913;SDS011;26638;50.990;4.676;2024-01-30T04:18:01;12.05;;;6.80;;
40913;SDS011;26638;50.990;4.676;2024-01-30T04:20:27;9.93;;;6.20;;
40913;SDS011;26638;50.990;4.676;2024-01-30T04:22:54;8.63;;;5.93;;
40913;SDS011;26638;50.990;4.676;2024-01-30T04:25:20;11.30;;;6.30;;
40913;SDS011;26638;50.990;4.676;2024-01-30T04:27:46;11.43;;;6.80;;
40913;SDS011;26638;50.990;4.676;2024-01-30T04:30:12;12.77;;;6.23;;
40913;SDS011;26638;50.990;4.676;2024-01-30T04:32:38;10.98;;;6.57;;
40913;SDS011;26638;50.990;4.676;2024-01-30T04:35:04;10.90;;;6.50;;
40913;SDS011;26638;50.990;4.676;2024-01-30T04:37:30;12.38;;;6.50;;
40913;SDS011;26638;50.990;4.676;2024-01-30T04:39:56;12.07;;;6.55;;
40913;SDS011;26638;50.990;4.676;2024-01-30T04:42:22;9.55;;;6.40;;
40913;SDS011;26638;50.990;4.676;2024-01-30T04:44:48;11.50;;;6.53;;
40913;SDS011;26638;50.990;4.676;2024-01-30T04:47:14;11.18;;;6.70;;
40913;SDS011;26638;50.990;4.676;2024-01-30T04:49:40;11.25;;;6.70;;
40913;SDS011;26638;50.990;4.676;2024-01-30T04:52:06;12.82;;;6.35;;
40913;SDS011;26638;50.990;4.676;2024-01-30T04:54:32;10.52;;;6.45;;
40913;SDS011;26638;50.990;4.676;2024-01-30T04:56:59;15.00;;;6.57;;
40913;SDS011;26638;50.990;4.676;2024-01-30T04:59:25;10.18;;;6.75;;
40913;SDS011;26638;50.990;4.676;2024-01-30T05:01:51;11.07;;;6.57;;
40913;SDS011;26638;50.990;4.676;2024-01-30T05:04:17;11.10;;;6.23;;
40913;SDS011;26638;50.990;4.676;2024-01-30T05:06:42;11.35;;;6.72;;
40913;SDS011;26638;50.990;4.676;2024-01-30T05:09:08;11.63;;;6.80;;
40913;SDS011;26638;50.990;4.676;2024-01-30T05:11:37;11.00;;;6.77;;
40913;SDS011;26638;50.990;4.676;2024-01-30T05:14:04;8.25;;;6.13;;
40913;SDS011;26638;50.990;4.676;2024-01-30T05:16:31;9.38;;;6.57;;
40913;SDS011;26638;50.990;4.676;2024-01-30T05:18:56;10.90;;;6.73;;
40913;SDS011;26638;50.990;4.676;2024-01-30T05:21:22;13.25;;;6.65;;
40913;SDS011;26638;50.990;4.676;2024-01-30T05:23:48;11.10;;;6.80;;
40913;SDS011;26638;50.990;4.676;2024-01-30T05:26:14;11.30;;;6.57;;
40913;SDS011;26638;50.990;4.676;2024-01-30T05:28:40;12.90;;;6.60;;
40913;SDS011;26638;50.990;4.676;2024-01-30T05:31:05;10.13;;;6.70;;
40913;SDS011;26638;50.990;4.676;2024-01-30T05:33:31;10.80;;;6.78;;
40913;SDS011;26638;50.990;4.676;2024-01-30T05:35:57;11.40;;;6.77;;
40913;SDS011;26638;50.990;4.676;2024-01-30T05:38:22;10.55;;;6.78;;
40913;SDS011;26638;50.990;4.676;2024-01-30T05:40:48;13.20;;;6.53;;
40913;SDS011;26638;50.990;4.676;2024-01-30T05:43:14;10.53;;;6.90;;
40913;SDS011;26638;50.990;4.676;2024-01-30T05:45:40;10.75;;;6.75;;
40913;SDS011;26638;50.990;4.676;2024-01-30T05:48:06;10.77;;;6.85;;
40913;SDS011;26638;50.990;4.676;2024-01-30T05:50:31;13.57;;;7.43;;
40913;SDS011;26638;50.990;4.676;2024-01-30T05:52:57;9.65;;;6.15;;
40913;SDS011;26638;50.990;4.676;2024-01-30T05:55:23;11.95;;;7.00;;
40913;SDS011;26638;50.990;4.676;2024-01-30T05:57:49;9.05;;;7.13;;
40913;SDS011;26638;50.990;4.676;2024-01-30T06:00:16;11.85;;;6.63;;
40913;SDS011;26638;50.990;4.676;2024-01-30T06:02:42;10.45;;;7.40;;
40913;SDS011;26638;50.990;4.676;2024-01-30T06:05:07;12.55;;;7.20;;
40913;SDS011;26638;50.990;4.676;2024-01-30T06:07:33;11.77;;;7.40;;
40913;SDS011;26638;50.990;4.676;2024-01-30T06:09:59;11.45;;;7.03;;
40913;SDS011;26638;50.990;4.676;2024-01-30T06:12:27;11.85;;;6.68;;
40913;SDS011;26638;50.990;4.676;2024-01-30T06:14:53;14.20;;;7.68;;
40913;SDS011;26638;50.990;4.676;2024-01-30T06:17:21;12.57;;;7.20;;
40913;SDS011;26638;50.990;4.676;2024-01-30T06:19:48;15.18;;;7.00;;
40913;SDS011;26638;50.990;4.676;2024-01-30T06:22:14;15.32;;;7.18;;
40913;SDS011;26638;50.990;4.676;2024-01-30T06:24:39;10.33;;;7.33;;
40913;SDS011;26638;50.990;4.676;2024-01-30T06:27:05;12.07;;;6.80;;
40913;SDS011;26638;50.990;4.676;2024-01-30T06:29:31;10.48;;;6.75;;
40913;SDS011;26638;50.990;4.676;2024-01-30T06:31:56;13.73;;;7.37;;
40913;SDS011;26638;50.990;4.676;2024-01-30T06:34:22;11.45;;;7.60;;
40913;SDS011;26638;50.990;4.676;2024-01-30T06:36:48;12.57;;;7.22;;
40913;SDS011;26638;50.990;4.676;2024-01-30T06:39:14;12.67;;;7.73;;
40913;SDS011;26638;50.990;4.676;2024-01-30T06:41:39;13.70;;;8.18;;
40913;SDS011;26638;50.990;4.676;2024-01-30T06:44:05;14.83;;;7.90;;
40913;SDS011;26638;50.990;4.676;2024-01-30T06:46:33;15.73;;;8.05;;
40913;SDS011;26638;50.990;4.676;2024-01-30T06:48:59;14.13;;;7.93;;
40913;SDS011;26638;50.990;4.676;2024-01-30T06:51:25;12.02;;;7.90;;
40913;SDS011;26638;50.990;4.676;2024-01-30T06:53:51;13.90;;;8.30;;
40913;SDS011;26638;50.990;4.676;2024-01-30T06:56:16;11.83;;;7.77;;
40913;SDS011;26638;50.990;4.676;2024-01-30T06:58:49;13.43;;;7.97;;
40913;SDS011;26638;50.990;4.676;2024-01-30T07:01:15;12.38;;;8.15;;
40913;SDS011;26638;50.990;4.676;2024-01-30T07:03:41;13.95;;;8.15;;
40913;SDS011;26638;50.990;4.676;2024-01-30T07:06:07;14.45;;;8.50;;
40913;SDS011;26638;50.990;4.676;2024-01-30T07:08:33;14.70;;;8.23;;
40913;SDS011;26638;50.990;4.676;2024-01-30T07:10:59;13.18;;;8.15;;
40913;SDS011;26638;50.990;4.676;2024-01-30T07:13:24;13.73;;;8.37;;
40913;SDS011;26638;50.990;4.676;2024-01-30T07:15:50;15.30;;;8.63;;
40913;SDS011;26638;50.990;4.676;2024-01-30T07:18:16;15.27;;;8.05;;
40913;SDS011;26638;50.990;4.676;2024-01-30T07:20:42;15.07;;;8.57;;
40913;SDS011;26638;50.990;4.676;2024-01-30T07:23:13;13.93;;;8.23;;
40913;SDS011;26638;50.990;4.676;2024-01-30T07:25:41;16.13;;;8.70;;
40913;SDS011;26638;50.990;4.676;2024-01-30T07:28:10;14.32;;;7.93;;
40913;SDS011;26638;50.990;4.676;2024-01-30T07:30:37;16.98;;;8.50;;
40913;SDS011;26638;50.990;4.676;2024-01-30T07:33:03;15.90;;;8.23;;
40913;SDS011;26638;50.990;4.676;2024-01-30T07:35:29;15.73;;;8.27;;
40913;SDS011;26638;50.990;4.676;2024-01-30T07:37:55;13.82;;;8.05;;
40913;SDS011;26638;50.990;4.676;2024-01-30T07:40:22;14.80;;;8.88;;
40913;SDS011;26638;50.990;4.676;2024-01-30T07:42:48;16.75;;;9.07;;
40913;SDS011;26638;50.990;4.676;2024-01-30T07:45:14;15.43;;;9.23;;
40913;SDS011;26638;50.990;4.676;2024-01-30T07:47:40;15.65;;;8.90;;
40913;SDS011;26638;50.990;4.676;2024-01-30T07:50:07;16.52;;;9.40;;
40913;SDS011;26638;50.990;4.676;2024-01-30T07:52:34;15.15;;;8.82;;
40913;SDS011;26638;50.990;4.676;2024-01-30T07:55:00;15.35;;;8.23;;
40913;SDS011;26638;50.990;4.676;2024-01-30T07:57:25;16.85;;;8.95;;
40913;SDS011;26638;50.990;4.676;2024-01-30T07:59:51;15.77;;;8.47;;
40913;SDS011;26638;50.990;4.676;2024-01-30T08:02:17;18.88;;;8.90;;
40913;SDS011;26638;50.990;4.676;2024-01-30T08:04:42;16.23;;;8.65;;
40913;SDS011;26638;50.990;4.676;2024-01-30T08:07:08;16.50;;;8.37;;
40913;SDS011;26638;50.990;4.676;2024-01-30T08:09:34;16.50;;;8.57;;
40913;SDS011;26638;50.990;4.676;2024-01-30T08:12:00;20.63;;;8.50;;
40913;SDS011;26638;50.990;4.676;2024-01-30T08:14:25;23.63;;;8.57;;
40913;SDS011;26638;50.990;4.676;2024-01-30T08:16:51;19.77;;;8.90;;
40913;SDS011;26638;50.990;4.676;2024-01-30T08:19:18;21.38;;;9.98;;
40913;SDS011;26638;50.990;4.676;2024-01-30T08:21:44;19.73;;;8.63;;
40913;SDS011;26638;50.990;4.676;2024-01-30T08:24:10;19.53;;;9.30;;
40913;SDS011;26638;50.990;4.676;2024-01-30T08:26:36;20.52;;;9.20;;
40913;SDS011;26638;50.990;4.676;2024-01-30T08:29:02;20.95;;;9.05;;
40913;SDS011;26638;50.990;4.676;2024-01-30T08:31:27;20.40;;;8.60;;
40913;SDS011;26638;50.990;4.676;2024-01-30T08:33:53;18.17;;;8.60;;
40913;SDS011;26638;50.990;4.676;2024-01-30T08:36:19;18.33;;;8.38;;
40913;SDS011;26638;50.990;4.676;2024-01-30T08:38:45;17.15;;;8.38;;
40913;SDS011;26638;50.990;4.676;2024-01-30T08:41:11;21.13;;;9.17;;
40913;SDS011;26638;50.990;4.676;2024-01-30T08:43:36;23.35;;;9.07;;
40913;SDS011;26638;50.990;4.676;2024-01-30T08:46:02;19.63;;;8.80;;
40913;SDS011;26638;50.990;4.676;2024-01-30T08:48:28;18.70;;;8.53;;
40913;SDS011;26638;50.990;4.676;2024-01-30T08:50:54;20.88;;;8.90;;
40913;SDS011;26638;50.990;4.676;2024-01-30T08:53:23;19.85;;;8.90;;
40913;SDS011;26638;50.990;4.676;2024-01-30T08:55:49;21.85;;;9.43;;
40913;SDS011;26638;50.990;4.676;2024-01-30T08:58:15;22.17;;;8.82;;
40913;SDS011;26638;50.990;4.676;2024-01-30T09:00:43;18.53;;;9.00;;
40913;SDS011;26638;50.990;4.676;2024-01-30T09:03:09;20.98;;;9.35;;
40913;SDS011;26638;50.990;4.676;2024-01-30T09:05:34;23.60;;;9.85;;
40913;SDS011;26638;50.990;4.676;2024-01-30T09:08:00;22.23;;;9.50;;
40913;SDS011;26638;50.990;4.676;2024-01-30T09:10:26;23.38;;;9.60;;
40913;SDS011;26638;50.990;4.676;2024-01-30T09:12:51;21.23;;;9.30;;
40913;SDS011;26638;50.990;4.676;2024-01-30T09:15:17;24.17;;;9.38;;
40913;SDS011;26638;50.990;4.676;2024-01-30T09:17:44;19.77;;;9.60;;
40913;SDS011;26638;50.990;4.676;2024-01-30T09:20:10;21.88;;;8.90;;
40913;SDS011;26638;50.990;4.676;2024-01-30T09:22:36;19.75;;;8.38;;
40913;SDS011;26638;50.990;4.676;2024-01-30T09:25:01;19.97;;;9.00;;
40913;SDS011;26638;50.990;4.676;2024-01-30T09:27:27;21.30;;;9.00;;
40913;SDS011;26638;50.990;4.676;2024-01-30T09:29:53;24.20;;;8.57;;
40913;SDS011;26638;50.990;4.676;2024-01-30T09:32:19;20.67;;;8.80;;
40913;SDS011;26638;50.990;4.676;2024-01-30T09:34:45;22.33;;;8.53;;
40913;SDS011;26638;50.990;4.676;2024-01-30T09:37:10;21.65;;;9.50;;
40913;SDS011;26638;50.990;4.676;2024-01-30T09:39:36;18.97;;;9.17;;
40913;SDS011;26638;50.990;4.676;2024-01-30T09:42:10;19.48;;;8.75;;
40913;SDS011;26638;50.990;4.676;2024-01-30T09:44:46;20.73;;;9.55;;
40913;SDS011;26638;50.990;4.676;2024-01-30T09:47:15;20.95;;;9.45;;
40913;SDS011;26638;50.990;4.676;2024-01-30T09:49:42;23.33;;;10.07;;
40913;SDS011;26638;50.990;4.676;2024-01-30T09:52:09;22.47;;;10.27;;
40913;SDS011;26638;50.990;4.676;2024-01-30T09:54:35;22.85;;;10.20;;
40913;SDS011;26638;50.990;4.676;2024-01-30T09:57:03;20.77;;;9.73;;
40913;SDS011;26638;50.990;4.676;2024-01-30T09:59:32;21.33;;;10.00;;
40913;SDS011;26638;50.990;4.676;2024-01-30T10:01:58;19.65;;;10.23;;
40913;SDS011;26638;50.990;4.676;2024-01-30T10:04:24;21.38;;;11.02;;
40913;SDS011;26638;50.990;4.676;2024-01-30T10:06:50;26.10;;;11.10;;
40913;SDS011;26638;50.990;4.676;2024-01-30T10:09:16;23.05;;;11.40;;
40913;SDS011;26638;50.990;4.676;2024-01-30T10:11:42;24.67;;;10.70;;
40913;SDS011;26638;50.990;4.676;2024-01-30T10:14:08;23.02;;;10.95;;
40913;SDS011;26638;50.990;4.676;2024-01-30T10:16:34;26.67;;;10.55;;
40913;SDS011;26638;50.990;4.676;2024-01-30T10:19:00;23.40;;;11.30;;
40913;SDS011;26638;50.990;4.676;2024-01-30T10:21:26;24.50;;;11.68;;
40913;SDS011;26638;50.990;4.676;2024-01-30T10:23:52;22.92;;;11.00;;
40913;SDS011;26638;50.990;4.676;2024-01-30T10:26:18;25.23;;;11.57;;
40913;SDS011;26638;50.990;4.676;2024-01-30T10:28:44;20.05;;;11.27;;
40913;SDS011;26638;50.990;4.676;2024-01-30T10:31:09;24.67;;;11.95;;
40913;SDS011;26638;50.990;4.676;2024-01-30T10:33:35;24.70;;;13.07;;
40913;SDS011;26638;50.990;4.676;2024-01-30T10:36:02;27.50;;;12.15;;
40913;SDS011;26638;50.990;4.676;2024-01-30T10:38:30;27.45;;;12.45;;
40913;SDS011;26638;50.990;4.676;2024-01-30T10:40:56;28.17;;;12.65;;
40913;SDS011;26638;50.990;4.676;2024-01-30T10:43:24;29.63;;;13.48;;
40913;SDS011;26638;50.990;4.676;2024-01-30T10:46:10;25.15;;;12.93;;
40913;SDS011;26638;50.990;4.676;2024-01-30T10:48:51;27.15;;;13.05;;
40913;SDS011;26638;50.990;4.676;2024-01-30T10:51:23;24.63;;;12.07;;
40913;SDS011;26638;50.990;4.676;2024-01-30T10:53:51;21.20;;;11.20;;
40913;SDS011;26638;50.990;4.676;2024-01-30T10:56:26;25.42;;;11.73;;
40913;SDS011;26638;50.990;4.676;2024-01-30T10:58:54;21.83;;;12.18;;
40913;SDS011;26638;50.990;4.676;2024-01-30T11:01:23;22.00;;;11.40;;
40913;SDS011;26638;50.990;4.676;2024-01-30T11:03:53;23.95;;;11.25;;
40913;SDS011;26638;50.990;4.676;2024-01-30T11:06:23;17.52;;;9.57;;
40913;SDS011;26638;50.990;4.676;2024-01-30T11:14:26;14.40;;;4.32;;
40913;SDS011;26638;50.990;4.676;2024-01-30T11:16:56;10.73;;;3.70;;
40913;SDS011;26638;50.990;4.676;2024-01-30T11:19:24;11.30;;;3.50;;
40913;SDS011;26638;50.990;4.676;2024-01-30T11:21:56;11.20;;;3.03;;
40913;SDS011;26638;50.990;4.676;2024-01-30T11:24:23;8.77;;;2.90;;
40913;SDS011;26638;50.990;4.676;2024-01-30T11:26:49;13.57;;;2.63;;
40913;SDS011;26638;50.990;4.676;2024-01-30T11:29:23;9.63;;;2.13;;
40913;SDS011;26638;50.990;4.676;2024-01-30T11:31:56;10.17;;;2.60;;
40913;SDS011;26638;50.990;4.676;2024-01-30T11:34:23;9.10;;;2.30;;
40913;SDS011;26638;50.990;4.676;2024-01-30T11:36:53;8.98;;;2.30;;
40913;SDS011;26638;50.990;4.676;2024-01-30T11:39:25;8.43;;;2.47;;
40913;SDS011;26638;50.990;4.676;2024-01-30T11:41:51;9.77;;;2.70;;
40913;SDS011;26638;50.990;4.676;2024-01-30T11:44:21;8.27;;;2.58;;
40913;SDS011;26638;50.990;4.676;2024-01-30T11:46:50;8.52;;;1.90;;
40913;SDS011;26638;50.990;4.676;2024-01-30T11:49:17;6.50;;;1.83;;
40913;SDS011;26638;50.990;4.676;2024-01-30T11:51:43;5.80;;;1.48;;
40913;SDS011;26638;50.990;4.676;2024-01-30T11:54:11;5.50;;;1.20;;
40913;SDS011;26638;50.990;4.676;2024-01-30T11:56:37;7.18;;;1.23;;
40913;SDS011;26638;50.990;4.676;2024-01-30T11:59:03;5.82;;;1.30;;
40913;SDS011;26638;50.990;4.676;2024-01-30T12:01:29;4.57;;;1.10;;
40913;SDS011;26638;50.990;4.676;2024-01-30T12:03:56;4.28;;;0.93;;
40913;SDS011;26638;50.990;4.676;2024-01-30T12:06:23;3.63;;;1.23;;
40913;SDS011;26638;50.990;4.676;2024-01-30T12:08:59;6.32;;;1.38;;
40913;SDS011;26638;50.990;4.676;2024-01-30T12:11:26;5.55;;;1.15;;
40913;SDS011;26638;50.990;4.676;2024-01-30T12:13:53;5.20;;;1.13;;
40913;SDS011;26638;50.990;4.676;2024-01-30T12:16:19;3.47;;;1.25;;
40913;SDS011;26638;50.990;4.676;2024-01-30T12:18:45;3.92;;;1.20;;
40913;SDS011;26638;50.990;4.676;2024-01-30T12:21:11;4.40;;;1.33;;
40913;SDS011;26638;50.990;4.676;2024-01-30T12:23:37;6.77;;;1.30;;
40913;SDS011;26638;50.990;4.676;2024-01-30T12:26:03;4.60;;;0.82;;
40913;SDS011;26638;50.990;4.676;2024-01-30T12:28:32;5.68;;;1.40;;
40913;SDS011;26638;50.990;4.676;2024-01-30T12:31:01;6.78;;;1.25;;
40913;SDS011;26638;50.990;4.676;2024-01-30T12:33:28;5.15;;;1.00;;
40913;SDS011;26638;50.990;4.676;2024-01-30T12:35:54;10.20;;;1.52;;
40913;SDS011;26638;50.990;4.676;2024-01-30T12:38:27;4.53;;;1.10;;
40913;SDS011;26638;50.990;4.676;2024-01-30T12:40:55;5.15;;;1.10;;
40913;SDS011;26638;50.990;4.676;2024-01-30T12:43:21;3.80;;;0.93;;
40913;SDS011;26638;50.990;4.676;2024-01-30T12:45:49;10.25;;;1.42;;
40913;SDS011;26638;50.990;4.676;2024-01-30T12:48:15;7.22;;;1.20;;
40913;SDS011;26638;50.990;4.676;2024-01-30T12:50:41;6.72;;;1.25;;
40913;SDS011;26638;50.990;4.676;2024-01-30T12:53:07;5.97;;;1.15;;
40913;SDS011;26638;50.990;4.676;2024-01-30T12:55:34;6.00;;;1.30;;
40913;SDS011;26638;50.990;4.676;2024-01-30T12:58:00;8.40;;;1.50;;
40913;SDS011;26638;50.990;4.676;2024-01-30T13:00:27;7.50;;;1.52;;
40913;SDS011;26638;50.990;4.676;2024-01-30T13:02:53;4.18;;;1.02;;
40913;SDS011;26638;50.990;4.676;2024-01-30T13:05:19;7.97;;;1.30;;
40913;SDS011;26638;50.990;4.676;2024-01-30T13:07:45;9.23;;;1.33;;
40913;SDS011;26638;50.990;4.676;2024-01-30T13:10:10;5.83;;;1.30;;
40913;SDS011;26638;50.990;4.676;2024-01-30T13:12:36;8.43;;;1.48;;
40913;SDS011;26638;50.990;4.676;2024-01-30T13:15:03;6.65;;;1.38;;
40913;SDS011;26638;50.990;4.676;2024-01-30T13:17:30;6.38;;;1.40;;
40913;SDS011;26638;50.990;4.676;2024-01-30T13:19:56;5.60;;;1.55;;
40913;SDS011;26638;50.990;4.676;2024-01-30T13:22:23;7.13;;;1.80;;
40913;SDS011;26638;50.990;4.676;2024-01-30T13:24:49;8.02;;;1.40;;
40913;SDS011;26638;50.990;4.676;2024-01-30T13:27:15;8.18;;;1.80;;
40913;SDS011;26638;50.990;4.676;2024-01-30T13:29:41;6.43;;;1.40;;
40913;SDS011;26638;50.990;4.676;2024-01-30T13:32:07;7.53;;;1.50;;
40913;SDS011;26638;50.990;4.676;2024-01-30T13:34:33;10.97;;;2.10;;
40913;SDS011;26638;50.990;4.676;2024-01-30T13:36:58;10.70;;;2.10;;
40913;SDS011;26638;50.990;4.676;2024-01-30T13:39:24;7.05;;;1.77;;
40913;SDS011;26638;50.990;4.676;2024-01-30T13:41:54;11.77;;;1.80;;
40913;SDS011;26638;50.990;4.676;2024-01-30T13:44:20;7.18;;;1.55;;
40913;SDS011;26638;50.990;4.676;2024-01-30T13:46:46;7.40;;;1.80;;
40913;SDS011;26638;50.990;4.676;2024-01-30T13:49:12;6.78;;;1.33;;
40913;SDS011;26638;50.990;4.676;2024-01-30T13:51:37;9.52;;;1.70;;
40913;SDS011;26638;50.990;4.676;2024-01-30T13:54:03;5.20;;;1.40;;
40913;SDS011;26638;50.990;4.676;2024-01-30T13:56:29;7.10;;;1.37;;
40913;SDS011;26638;50.990;4.676;2024-01-30T13:58:55;8.50;;;1.43;;
40913;SDS011;26638;50.990;4.676;2024-01-30T14:01:21;6.20;;;1.67;;
40913;SDS011;26638;50.990;4.676;2024-01-30T14:03:47;5.07;;;1.25;;
40913;SDS011;26638;50.990;4.676;2024-01-30T14:06:14;7.13;;;1.48;;
40913;SDS011;26638;50.990;4.676;2024-01-30T14:08:39;4.43;;;1.20;;
40913;SDS011;26638;50.990;4.676;2024-01-30T14:11:05;5.90;;;1.30;;
40913;SDS011;26638;50.990;4.676;2024-01-30T14:13:31;5.45;;;1.50;;
40913;SDS011;26638;50.990;4.676;2024-01-30T14:15:57;6.28;;;1.27;;
40913;SDS011;26638;50.990;4.676;2024-01-30T14:18:23;6.55;;;1.50;;
40913;SDS011;26638;50.990;4.676;2024-01-30T14:20:50;10.70;;;2.20;;
40913;SDS011;26638;50.990;4.676;2024-01-30T14:23:16;10.75;;;1.80;;
40913;SDS011;26638;50.990;4.676;2024-01-30T14:25:42;10.85;;;2.03;;
40913;SDS011;26638;50.990;4.676;2024-01-30T14:28:08;9.38;;;1.90;;
40913;SDS011;26638;50.990;4.676;2024-01-30T14:30:34;8.77;;;1.77;;
40913;SDS011;26638;50.990;4.676;2024-01-30T14:33:01;8.95;;;2.10;;
40913;SDS011;26638;50.990;4.676;2024-01-30T14:35:27;8.30;;;2.00;;
40913;SDS011;26638;50.990;4.676;2024-01-30T14:37:52;8.93;;;1.87;;